Flight Track Log - Related Links

Times and Time Zones

All times are in EDT time to prevent confusion due to time zone crossing. See the SKQ45 flight status page for this flight to view local times or setup timezone preferences in your user account.

Time Position Orientation Groundspeed Altitude Reporting Facility
EDT Latitude Longitude Course Direction KTS MPH feet Rate Location/Type
Fri 10:47:57 PM 37.0842 -88.7603 307° West 248 285 4,300  Level Memphis Center
Fri 10:48:57 PM 37.1139 -88.8092 307° West 169 194 5,300 1,000 Climbing Memphis Center
Fri 10:49:57 PM 37.1478 -88.8631 308° West 181 208 6,300 1,000 Climbing Memphis Center
Fri 10:50:57 PM 37.1881 -88.9144 315° West 192 221 7,300 950 Climbing Memphis Center
Fri 10:51:57 PM 37.2219 -88.9711 307° West 197 227 8,200 950 Climbing Memphis Center
Fri 10:52:57 PM 37.2517 -89.0228 306° West 197 227 9,200 578 Climbing Memphis Center
Fri 10:55:04 PM 37.3283 -89.1386 310° West 207 238 10,000 251 Climbing Kansas City Center
Fri 10:56:08 PM 37.3822 -89.1808 328° Northwest 224 258 10,000  Level Kansas City Center
Fri 10:57:08 PM 37.4336 -89.2256 325° Northwest 225 259 10,000  Level Kansas City Center
Fri 10:58:09 PM 37.4858 -89.2686 327° Northwest 225 259 10,000  Level Kansas City Center
Fri 10:59:10 PM 37.5378 -89.3128 326° Northwest 226 260 10,000  Level Kansas City Center
Fri 11:00:11 PM 37.5908 -89.3589 325° Northwest 230 265 10,000  Level Kansas City Center
Fri 11:01:12 PM 37.6475 -89.4094 325° Northwest 227 261 10,000  Level Kansas City Center
Fri 11:02:13 PM 37.6994 -89.4533 326° Northwest 225 259 10,000 -50 Level Kansas City Center
Fri 11:03:11 PM 37.7517 -89.4972 326° Northwest 225 259 9,900 -49 Descending Kansas City Center
Fri 11:04:15 PM 37.8033 -89.5419 326° Northwest 225 259 9,900  Level Kansas City Center
Fri 11:05:16 PM 37.8567 -89.5875 326° Northwest 221 254 9,900  Level Kansas City Center
Fri 11:06:16 PM 37.9128 -89.6356 326° Northwest 224 258 9,900  Level Kansas City Center
Fri 11:07:17 PM 37.9642 -89.6800 326° Northwest 225 259 9,900  Level Kansas City Center
Fri 11:08:18 PM 38.0144 -89.7228 326° Northwest 219 252 9,900  Level Kansas City Center
Fri 11:09:19 PM 38.0642 -89.7669 325° Northwest 218 251 9,900  Level Kansas City Center
Fri 11:10:19 PM 38.1142 -89.8100 326° Northwest 218 251 9,900 50 Level Kansas City Center
Fri 11:11:20 PM 38.1622 -89.8519 326° Northwest 211 243 10,000 50 Climbing Kansas City Center
Fri 11:12:20 PM 38.2067 -89.8917 325° Northwest 184 212 10,000 -200 Level Kansas City Center
Fri 11:13:20 PM 38.2531 -89.9308 326° Northwest 198 228 9,600 -492 Descending Kansas City Center
Fri 11:14:22 PM 38.3050 -89.9800 323° Northwest 228 262 9,000 -488 Descending Kansas City Center
Fri 11:15:23 PM 38.3553 -90.0383 318° Northwest 241 277 8,600 -390 Descending Kansas City Center
Fri 11:16:25 PM 38.4014 -90.0892 319° Northwest 249 287 8,200 -439 Descending Kansas City Center
Fri 11:17:26 PM 38.4558 -90.1483 320° Northwest 254 292 7,700 -545 Descending Kansas City Center
Fri 11:18:26 PM 38.5211 -90.2203 319° Northwest 257 296 7,100 -545 Descending Kansas City Center
Fri 11:19:27 PM 38.5678 -90.2731 319° Northwest 255 293 6,600 -537 Descending Kansas City Center
Fri 11:20:29 PM 38.6203 -90.3306 319° Northwest 251 289 6,000 -738 Descending Kansas City Center
Fri 11:21:29 PM 38.6600 -90.4047 304° West 254 292 5,100 -1,059 Descending Kansas City Center
Fri 11:22:28 PM 38.6989 -90.4819 303° West 252 290 3,900 -1,200 Descending Kansas City Center
Fri 11:23:29 PM 38.7522 -90.5039 342° North 231 266 2,700 -968 Descending Kansas City Center
Fri 11:24:32 PM 38.7822 -90.4503 54° Northeast 206 237 1,900 -726 Descending Kansas City Center
Fri 11:25:33 PM 38.7672 -90.3967 110° East 174 200 1,200 -645 Descending Kansas City Center
Fri 11:26:33 PM 38.7489 -90.3594 122° Southeast 144 166 600 -600 Descending Kansas City Center
Fri 11:28:00 PM 38.7487 -90.3700 345° North  Level Estimated
Fri 11:35:00 PM 38.7487 -90.3700 345° North  Level Estimated

Login

Don't have an account? Register now (free) for customized features, flight alerts, and more!